Time;durP1;ratioP1;P1;durP2;ratioP2;P2;SDS_P1;SDS_P2;PMS_P1;PMS_P2;Temp;Humidity;BMP_temperature;BMP_pressure;BME280_temperature;BME280_humidity;BME280_pressure;Samples;Min_cycle;Max_cycle;Signal;HPM_P1;HPM_P2
2023/07/06 00:00:49;;;;;;;;;;;;;;;17.02;36.86;100650.44;4932435;28;97885;-65
2023/07/06 00:03:15;;;;;;;;;;;;;;;17.06;36.81;100645.97;4929622;28;98413;-70
2023/07/06 00:05:44;;;;;;;;;;;;;;;17.10;37.05;100645.06;4928590;28;99883;-70
2023/07/06 00:08:12;;;;;;;;;;;;;;;17.15;37.03;100649.56;4925648;28;98857;-70
2023/07/06 00:10:39;;;;;;;;;;;;;;;17.17;36.87;100652.78;4925826;28;97976;-65
2023/07/06 00:13:06;;;;;;;;;;;;;;;17.20;37.00;100659.53;4944148;28;97984;-65
2023/07/06 00:15:35;;;;;;;;;;;;;;;17.21;36.90;100664.69;4943004;28;105783;-72
2023/07/06 00:18:05;;;;;;;;;;;;;;;17.21;36.71;100663.88;4923610;28;98218;-65
2023/07/06 00:20:38;;;;;;;;;;;;;;;17.21;37.12;100661.16;4928513;28;98677;-65
2023/07/06 00:23:08;;;;;;;;;;;;;;;17.22;36.89;100673.69;4927431;28;98445;-65
2023/07/06 00:25:41;;;;;;;;;;;;;;;17.22;37.06;100669.03;4926970;28;98025;-65
2023/07/06 00:28:08;;;;;;;;;;;;;;;17.23;36.95;100669.84;4927551;28;98025;-65
2023/07/06 00:33:13;;;;;;;;;;;;;;;17.20;36.93;100665.78;4935465;28;98738;-65
2023/07/06 00:35:43;;;;;;;;;;;;;;;17.20;37.00;100673.16;4924585;28;98316;-70
2023/07/06 00:38:12;;;;;;;;;;;;;;;17.17;37.05;100680.84;4956558;28;98236;-72
2023/07/06 00:40:42;;;;;;;;;;;;;;;17.14;37.05;100678.72;4928325;28;98096;-65
2023/07/06 00:43:15;;;;;;;;;;;;;;;17.13;37.04;100679.03;4924742;28;98285;-65
2023/07/06 00:45:42;;;;;;;;;;;;;;;17.09;37.18;100678.03;4929922;28;99765;-70
2023/07/06 00:48:32;;;;;;;;;;;;;;;17.07;37.11;100689.22;4927618;28;98312;-69
2023/07/06 00:51:00;;;;;;;;;;;;;;;17.03;37.18;100684.69;4941840;28;97911;-70
2023/07/06 00:53:28;;;;;;;;;;;;;;;16.99;37.03;100687.22;4926871;28;100383;-65
2023/07/06 00:55:57;;;;;;;;;;;;;;;16.93;37.21;100691.97;4934438;28;97971;-70
2023/07/06 00:58:27;;;;;;;;;;;;;;;16.89;37.18;100692.88;4923992;28;98244;-65
2023/07/06 01:00:54;;;;;;;;;;;;;;;16.86;37.15;100683.41;4937543;28;98327;-70
2023/07/06 01:03:20;;;;;;;;;;;;;;;16.84;37.00;100680.19;4921540;28;98157;-70
2023/07/06 01:05:48;;;;;;;;;;;;;;;16.85;37.23;100678.25;4924510;28;98127;-65
2023/07/06 01:08:16;;;;;;;;;;;;;;;16.84;37.14;100671.22;4919111;28;98290;-70
2023/07/06 01:10:43;;;;;;;;;;;;;;;16.83;37.23;100673.13;4927624;28;99347;-65
2023/07/06 01:13:10;;;;;;;;;;;;;;;16.80;37.24;100672.94;4927363;28;98300;-70
2023/07/06 01:15:43;;;;;;;;;;;;;;;16.78;37.23;100666.97;4919273;28;98571;-69
2023/07/06 01:18:30;;;;;;;;;;;;;;;16.74;37.14;100661.34;4936158;28;98033;-70
2023/07/06 01:21:02;;;;;;;;;;;;;;;16.69;37.31;100670.38;4942826;28;100587;-65
2023/07/06 01:23:45;;;;;;;;;;;;;;;16.65;37.31;100669.38;4950280;28;97965;-71
2023/07/06 01:26:13;;;;;;;;;;;;;;;16.62;37.30;100671.88;4927213;28;98112;-72
2023/07/06 01:29:07;;;;;;;;;;;;;;;16.57;37.09;100672.00;4938204;28;98805;-65
2023/07/06 01:31:36;;;;;;;;;;;;;;;16.52;37.23;100666.66;4925861;28;98024;-64
2023/07/06 01:34:41;;;;;;;;;;;;;;;16.45;37.25;100664.34;4946808;28;98067;-70
2023/07/06 01:37:27;;;;;;;;;;;;;;;16.38;37.33;100667.44;4948440;28;100382;-64
2023/07/06 01:39:53;;;;;;;;;;;;;;;16.30;37.30;100670.06;4927057;28;98164;-71
2023/07/06 01:42:29;;;;;;;;;;;;;;;16.25;37.36;100672.88;4937448;28;98200;-65
2023/07/06 01:45:02;;;;;;;;;;;;;;;16.20;37.35;100673.78;4955644;28;99714;-64
2023/07/06 01:47:29;;;;;;;;;;;;;;;16.15;37.34;100676.56;4938677;28;98359;-69
2023/07/06 01:49:55;;;;;;;;;;;;;;;16.10;37.39;100676.69;4924454;28;98356;-65
2023/07/06 01:52:34;;;;;;;;;;;;;;;16.05;37.32;100674.84;4928689;28;97835;-70
2023/07/06 01:55:22;;;;;;;;;;;;;;;16.01;37.35;100673.03;4957185;28;98688;-70
2023/07/06 01:58:04;;;;;;;;;;;;;;;15.95;37.36;100678.56;4940821;28;98287;-65
2023/07/06 02:00:31;;;;;;;;;;;;;;;15.86;37.39;100685.78;4933584;28;97963;-64
2023/07/06 02:02:58;;;;;;;;;;;;;;;15.78;37.50;100689.16;4924122;28;100923;-70
2023/07/06 02:05:24;;;;;;;;;;;;;;;15.75;37.42;100688.94;4941331;28;98052;-66
2023/07/06 02:07:51;;;;;;;;;;;;;;;15.73;37.60;100685.75;4925914;28;98319;-70
2023/07/06 02:10:19;;;;;;;;;;;;;;;15.70;37.53;100696.09;4942970;28;98244;-65
2023/07/06 02:12:47;;;;;;;;;;;;;;;15.70;37.52;100692.56;4926613;28;97910;-70
2023/07/06 02:15:20;;;;;;;;;;;;;;;15.66;37.28;100696.97;4920756;28;98198;-70
2023/07/06 02:17:47;;;;;;;;;;;;;;;15.64;37.61;100699.97;4923336;28;99047;-70
2023/07/06 02:20:16;;;;;;;;;;;;;;;15.61;37.31;100707.91;4923827;28;105130;-65
2023/07/06 02:22:44;;;;;;;;;;;;;;;15.56;37.32;100702.53;4958080;28;98457;-64
2023/07/06 02:25:10;;;;;;;;;;;;;;;15.57;37.30;100704.16;4919072;28;98542;-69
2023/07/06 02:27:36;;;;;;;;;;;;;;;15.56;37.48;100705.25;4925185;28;98082;-70
2023/07/06 02:30:04;;;;;;;;;;;;;;;15.55;37.59;100709.06;4916567;28;98089;-65
2023/07/06 02:32:31;;;;;;;;;;;;;;;15.51;37.45;100706.13;4925667;28;98072;-64
2023/07/06 02:34:57;;;;;;;;;;;;;;;15.46;37.70;100707.00;4922537;28;97987;-65
2023/07/06 02:37:24;;;;;;;;;;;;;;;15.42;37.45;100706.00;4927151;28;97971;-65
2023/07/06 02:39:50;;;;;;;;;;;;;;;15.37;37.63;100706.06;4939728;28;98139;-70
2023/07/06 02:42:17;;;;;;;;;;;;;;;15.33;37.67;100713.19;4923025;28;98442;-65
2023/07/06 02:44:46;;;;;;;;;;;;;;;15.31;37.45;100717.28;4918880;28;100102;-64
2023/07/06 02:47:13;;;;;;;;;;;;;;;15.27;37.66;100714.34;4939182;28;101138;-64
2023/07/06 02:49:39;;;;;;;;;;;;;;;15.27;37.65;100708.13;4939900;28;98323;-70
2023/07/06 02:52:07;;;;;;;;;;;;;;;15.27;37.71;100710.81;4923567;28;98573;-70
2023/07/06 02:54:33;;;;;;;;;;;;;;;15.29;37.59;100711.31;4921500;28;98183;-65
2023/07/06 02:57:02;;;;;;;;;;;;;;;15.30;37.73;100715.69;4921539;28;98967;-65
2023/07/06 02:59:32;;;;;;;;;;;;;;;15.31;37.72;100707.22;4917138;28;98195;-65
2023/07/06 03:01:58;;;;;;;;;;;;;;;15.32;37.37;100716.19;4918395;28;99777;-65
2023/07/06 03:04:28;;;;;;;;;;;;;;;15.33;37.69;100715.09;4954157;28;98516;-65
2023/07/06 03:06:55;;;;;;;;;;;;;;;15.31;37.45;100723.53;4923393;28;99845;-65
2023/07/06 03:09:22;;;;;;;;;;;;;;;15.27;37.60;100719.78;4948460;28;98016;-70
2023/07/06 03:11:49;;;;;;;;;;;;;;;15.24;37.43;100725.78;4922823;28;98251;-70
2023/07/06 03:14:15;;;;;;;;;;;;;;;15.19;37.37;100728.56;4923565;28;98316;-64
2023/07/06 03:16:42;;;;;;;;;;;;;;;15.17;37.78;100736.22;4921408;28;98062;-64
2023/07/06 03:19:10;;;;;;;;;;;;;;;15.12;37.46;100738.97;4920122;28;98214;-65
2023/07/06 03:21:39;;;;;;;;;;;;;;;15.09;37.75;100732.25;4922573;28;99001;-70
2023/07/06 03:24:06;;;;;;;;;;;;;;;15.06;37.40;100729.31;4924082;28;100116;-70
2023/07/06 03:26:34;;;;;;;;;;;;;;;15.05;37.74;100727.66;4940985;28;98265;-65
2023/07/06 03:29:12;;;;;;;;;;;;;;;15.06;37.31;100718.44;4939151;28;98145;-70
2023/07/06 03:31:39;;;;;;;;;;;;;;;15.08;37.68;100722.47;4920741;28;98487;-69
2023/07/06 03:34:06;;;;;;;;;;;;;;;15.09;37.38;100721.38;4938156;28;98497;-65
2023/07/06 03:36:33;;;;;;;;;;;;;;;15.11;37.74;100729.22;4922315;28;97951;-64
2023/07/06 03:39:03;;;;;;;;;;;;;;;15.14;37.67;100728.66;4919081;28;98954;-70
2023/07/06 03:41:29;;;;;;;;;;;;;;;15.16;37.64;100738.09;4936107;28;98143;-70
2023/07/06 03:43:58;;;;;;;;;;;;;;;15.16;37.35;100738.09;4942655;28;98318;-70
2023/07/06 03:46:33;;;;;;;;;;;;;;;15.17;37.44;100744.38;4925008;28;99574;-70
2023/07/06 03:49:01;;;;;;;;;;;;;;;15.17;37.37;100755.22;4922427;28;98488;-70
2023/07/06 03:51:27;;;;;;;;;;;;;;;15.17;37.28;100760.66;4915158;28;98321;-70
2023/07/06 03:53:53;;;;;;;;;;;;;;;15.17;37.57;100756.03;4925469;28;99300;-66
2023/07/06 03:56:27;;;;;;;;;;;;;;;15.17;37.39;100758.75;4925465;28;98087;-65
2023/07/06 03:58:56;;;;;;;;;;;;;;;15.13;37.30;100760.44;4928521;28;98241;-65
2023/07/06 04:01:25;;;;;;;;;;;;;;;15.11;37.60;100765.31;4935941;28;98360;-65
2023/07/06 04:03:52;;;;;;;;;;;;;;;15.09;37.72;100766.72;4925839;28;99326;-64
2023/07/06 04:06:18;;;;;;;;;;;;;;;15.08;37.47;100774.03;4923404;28;98175;-65
2023/07/06 04:08:45;;;;;;;;;;;;;;;15.10;37.70;100765.63;4947746;27;98212;-70
2023/07/06 04:11:11;;;;;;;;;;;;;;;15.14;37.34;100763.94;4934209;28;98041;-70
2023/07/06 04:13:37;;;;;;;;;;;;;;;15.17;37.36;100763.38;4928349;28;99650;-65
2023/07/06 04:16:05;;;;;;;;;;;;;;;15.22;37.33;100771.44;4928584;27;97940;-64
2023/07/06 04:18:32;;;;;;;;;;;;;;;15.30;37.36;100768.09;4929392;27;99618;-70
2023/07/06 04:21:00;;;;;;;;;;;;;;;15.37;37.61;100770.44;4933386;28;98039;-65
2023/07/06 04:23:26;;;;;;;;;;;;;;;15.44;37.38;100770.88;4930879;28;99305;-70
2023/07/06 04:25:53;;;;;;;;;;;;;;;15.51;37.17;100775.94;4930539;27;99843;-70
2023/07/06 04:28:20;;;;;;;;;;;;;;;15.57;37.46;100780.22;4927325;28;102547;-65
2023/07/06 04:30:49;;;;;;;;;;;;;;;15.63;37.71;100779.84;4929683;27;98376;-65
2023/07/06 04:33:17;;;;;;;;;;;;;;;15.66;37.37;100779.28;4928016;27;98333;-65
2023/07/06 04:35:44;;;;;;;;;;;;;;;15.71;37.24;100775.69;4928979;28;100017;-65
2023/07/06 04:38:10;;;;;;;;;;;;;;;15.77;37.36;100784.59;4942139;28;98520;-65
2023/07/06 04:40:38;;;;;;;;;;;;;;;15.84;37.41;100788.56;4958467;28;99567;-70
2023/07/06 04:43:05;;;;;;;;;;;;;;;15.91;37.24;100790.88;4928735;27;100159;-70
2023/07/06 04:45:31;;;;;;;;;;;;;;;16.02;37.21;100791.56;4925868;28;99517;-64
2023/07/06 04:47:58;;;;;;;;;;;;;;;16.14;37.13;100792.69;4940112;27;98045;-64
2023/07/06 04:50:27;;;;;;;;;;;;;;;16.30;37.28;100785.09;4941040;28;98484;-64
2023/07/06 04:52:57;;;;;;;;;;;;;;;16.43;37.14;100803.41;4929621;27;98058;-65
2023/07/06 04:55:25;;;;;;;;;;;;;;;16.53;37.09;100796.94;4922634;27;98713;-70
2023/07/06 04:57:54;;;;;;;;;;;;;;;16.63;37.12;100790.53;4925683;27;97900;-65
2023/07/06 05:00:24;;;;;;;;;;;;;;;16.72;36.97;100793.38;4924373;28;98310;-64
2023/07/06 05:02:55;;;;;;;;;;;;;;;16.83;37.02;100789.38;4923418;27;99965;-70
2023/07/06 05:05:22;;;;;;;;;;;;;;;16.97;37.03;100786.66;4920364;27;98394;-70
2023/07/06 05:07:49;;;;;;;;;;;;;;;17.02;37.06;100789.28;4958929;27;99240;-70
2023/07/06 05:10:15;;;;;;;;;;;;;;;17.07;36.97;100784.53;4942975;27;99714;-71
2023/07/06 05:12:42;;;;;;;;;;;;;;;17.15;37.03;100792.00;4932403;27;98178;-70
2023/07/06 05:15:09;;;;;;;;;;;;;;;17.21;37.14;100802.78;4937562;27;98334;-70
2023/07/06 05:17:37;;;;;;;;;;;;;;;17.33;36.98;100803.91;4948553;27;98264;-70
2023/07/06 05:20:04;;;;;;;;;;;;;;;17.54;36.81;100795.28;4941567;27;98395;-65
2023/07/06 05:22:31;;;;;;;;;;;;;;;17.87;36.63;100802.19;4929183;27;98333;-70
2023/07/06 05:24:57;;;;;;;;;;;;;;;18.01;36.41;100802.16;4928462;27;98494;-70
2023/07/06 05:27:25;;;;;;;;;;;;;;;18.11;36.57;100810.06;4925816;28;98378;-65
2023/07/06 05:29:52;;;;;;;;;;;;;;;18.38;36.33;100803.69;4929827;27;98402;-70
2023/07/06 05:32:18;;;;;;;;;;;;;;;18.57;36.39;100799.94;4922891;28;98169;-65
2023/07/06 05:34:45;;;;;;;;;;;;;;;18.59;36.62;100806.72;4929115;27;97986;-70
2023/07/06 05:37:11;;;;;;;;;;;;;;;18.83;36.25;100800.94;4928486;28;99463;-70
2023/07/06 05:39:39;;;;;;;;;;;;;;;19.09;36.04;100808.41;4937812;27;98348;-64
2023/07/06 05:42:05;;;;;;;;;;;;;;;19.21;36.33;100808.59;4926946;28;99928;-70
2023/07/06 05:44:32;;;;;;;;;;;;;;;19.52;36.04;100802.25;4929775;28;98201;-70
2023/07/06 05:46:59;;;;;;;;;;;;;;;19.81;36.03;100804.41;4928374;27;98325;-70
2023/07/06 05:49:25;;;;;;;;;;;;;;;20.14;35.83;100807.47;4932648;27;98175;-65
2023/07/06 05:51:52;;;;;;;;;;;;;;;20.46;35.81;100802.56;4929038;27;97993;-65
2023/07/06 05:54:18;;;;;;;;;;;;;;;20.80;35.71;100799.78;4928786;28;100299;-65
2023/07/06 05:56:46;;;;;;;;;;;;;;;21.16;35.56;100800.41;4929934;27;97964;-70
2023/07/06 05:59:15;;;;;;;;;;;;;;;21.56;35.60;100801.66;4926579;27;98091;-65
2023/07/06 06:01:41;;;;;;;;;;;;;;;21.97;35.55;100804.75;4928167;27;98348;-65
2023/07/06 06:04:10;;;;;;;;;;;;;;;22.37;35.58;100805.03;4924521;28;98264;-65
2023/07/06 06:06:46;;;;;;;;;;;;;;;22.86;35.18;100810.63;4943302;27;98324;-65
2023/07/06 06:09:13;;;;;;;;;;;;;;;23.39;35.43;100808.84;4923305;28;98303;-71
2023/07/06 06:11:40;;;;;;;;;;;;;;;23.93;35.38;100816.78;4944413;27;98076;-65
2023/07/06 06:14:07;;;;;;;;;;;;;;;24.65;35.00;100808.53;4944466;27;99531;-66
2023/07/06 06:16:33;;;;;;;;;;;;;;;27.04;33.18;100818.34;4940378;28;98136;-66
2023/07/06 06:19:01;;;;;;;;;;;;;;;27.56;32.72;100821.50;4925774;27;98086;-66
2023/07/06 06:21:29;;;;;;;;;;;;;;;27.23;33.77;100830.50;4926469;28;98385;-66
2023/07/06 06:23:56;;;;;;;;;;;;;;;27.76;33.76;100827.72;4925070;28;98834;-66
2023/07/06 06:26:23;;;;;;;;;;;;;;;28.29;33.61;100833.09;4924571;28;97985;-66
2023/07/06 06:28:49;;;;;;;;;;;;;;;28.95;33.58;100838.94;4927664;27;99258;-66
2023/07/06 06:31:15;;;;;;;;;;;;;;;29.19;33.65;100841.13;4945017;28;97813;-72
2023/07/06 06:33:44;;;;;;;;;;;;;;;29.80;33.82;100838.78;4926385;27;97842;-72
2023/07/06 06:36:11;;;;;;;;;;;;;;;30.83;33.09;100835.50;4943055;28;98112;-73
2023/07/06 06:38:38;;;;;;;;;;;;;;;31.51;32.46;100841.03;4927621;28;98077;-67
2023/07/06 06:41:07;;;;;;;;;;;;;;;31.78;32.58;100835.78;4929571;27;97878;-69
2023/07/06 06:43:38;;;;;;;;;;;;;;;32.44;32.10;100835.91;4924754;27;97964;-73
2023/07/06 06:46:05;;;;;;;;;;;;;;;32.60;32.47;100840.19;4930637;27;99413;-71
2023/07/06 06:48:32;;;;;;;;;;;;;;;32.20;32.91;100842.41;4920208;27;99470;-71
2023/07/06 06:50:59;;;;;;;;;;;;;;;31.98;33.27;100831.34;4921710;27;99887;-71
2023/07/06 06:53:26;;;;;;;;;;;;;;;31.82;33.10;100839.34;4920888;28;97852;-68
2023/07/06 06:55:52;;;;;;;;;;;;;;;31.82;33.07;100844.13;4940707;27;98098;-71
2023/07/06 06:58:20;;;;;;;;;;;;;;;31.80;33.12;100836.19;4944476;27;98062;-68
2023/07/06 07:00:47;;;;;;;;;;;;;;;31.80;33.33;100832.63;4943695;27;98493;-68
2023/07/06 07:03:14;;;;;;;;;;;;;;;31.92;33.06;100830.19;4946343;28;97991;-70
2023/07/06 07:05:40;;;;;;;;;;;;;;;32.17;32.73;100837.63;4929531;28;98922;-68
2023/07/06 07:08:07;;;;;;;;;;;;;;;32.52;32.72;100831.09;4931080;28;98173;-70
2023/07/06 07:10:33;;;;;;;;;;;;;;;32.97;32.24;100831.97;4927749;28;98098;-71
2023/07/06 07:13:00;;;;;;;;;;;;;;;33.46;32.34;100838.28;4920199;27;97934;-71
2023/07/06 07:15:26;;;;;;;;;;;;;;;33.88;32.16;100830.63;4924963;28;98096;-71
2023/07/06 07:17:55;;;;;;;;;;;;;;;34.12;31.71;100831.53;4927506;28;98021;-70
2023/07/06 07:20:21;;;;;;;;;;;;;;;34.24;31.81;100830.19;4928089;28;98271;-68
2023/07/06 07:22:48;;;;;;;;;;;;;;;34.35;31.79;100828.03;4925568;27;99018;-68
2023/07/06 07:25:17;;;;;;;;;;;;;;;34.60;32.16;100826.88;4929494;27;98871;-71
2023/07/06 07:27:43;;;;;;;;;;;;;;;34.90;31.78;100829.59;4922142;27;98253;-71
2023/07/06 07:30:11;;;;;;;;;;;;;;;35.21;31.55;100828.66;4923138;27;98579;-68
2023/07/06 07:32:38;;;;;;;;;;;;;;;35.42;31.36;100825.47;4930756;28;97996;-68
2023/07/06 07:35:04;;;;;;;;;;;;;;;35.59;31.56;100829.19;4929288;28;98163;-68
2023/07/06 07:37:30;;;;;;;;;;;;;;;35.76;31.78;100830.81;4927056;27;98135;-67
2023/07/06 07:39:57;;;;;;;;;;;;;;;35.91;31.38;100836.91;4946021;28;98438;-67
2023/07/06 07:42:25;;;;;;;;;;;;;;;36.04;31.59;100823.03;4931372;28;97845;-71
2023/07/06 07:44:51;;;;;;;;;;;;;;;36.28;31.21;100827.31;4929163;28;98009;-70
2023/07/06 07:47:18;;;;;;;;;;;;;;;36.56;31.46;100827.91;4927627;28;98026;-67
2023/07/06 07:49:45;;;;;;;;;;;;;;;36.88;30.97;100824.31;4938974;27;98537;-70
2023/07/06 07:52:12;;;;;;;;;;;;;;;37.31;31.05;100823.22;4948086;28;99173;-67
2023/07/06 07:54:39;;;;;;;;;;;;;;;37.71;30.61;100831.34;4933704;27;98197;-71
2023/07/06 07:57:07;;;;;;;;;;;;;;;38.22;30.30;100829.44;4939220;28;98125;-67
2023/07/06 07:59:36;;;;;;;;;;;;;;;36.12;32.38;100816.88;4927992;28;98314;-67
2023/07/06 08:02:02;;;;;;;;;;;;;;;37.77;30.63;100818.31;4933229;28;98453;-71
2023/07/06 08:04:30;;;;;;;;;;;;;;;38.66;30.06;100818.38;4927568;27;98140;-67
2023/07/06 08:06:56;;;;;;;;;;;;;;;39.36;29.90;100819.25;4945604;28;98288;-67
2023/07/06 08:09:23;;;;;;;;;;;;;;;39.92;29.68;100826.06;4925303;27;98045;-71
2023/07/06 08:11:49;;;;;;;;;;;;;;;40.52;29.31;100822.09;4924860;28;98207;-67
2023/07/06 08:14:33;;;;;;;;;;;;;;;38.71;30.70;100822.66;4928080;28;98214;-71
2023/07/06 08:17:00;;;;;;;;;;;;;;;40.47;29.71;100823.47;4942462;27;98039;-67
2023/07/06 08:19:27;;;;;;;;;;;;;;;41.37;28.92;100829.75;4941056;28;98009;-67
2023/07/06 08:21:53;;;;;;;;;;;;;;;42.11;28.75;100821.16;4942844;27;98618;-67
2023/07/06 08:24:19;;;;;;;;;;;;;;;41.48;29.29;100809.53;4941237;27;98074;-71
2023/07/06 08:26:46;;;;;;;;;;;;;;;41.24;29.48;100819.91;4939902;28;98195;-71
2023/07/06 08:29:13;;;;;;;;;;;;;;;39.83;30.65;100815.50;4938011;28;98708;-67
2023/07/06 08:31:39;;;;;;;;;;;;;;;41.66;29.26;100815.16;4947389;27;115785;-67
2023/07/06 08:34:06;;;;;;;;;;;;;;;42.65;28.84;100817.31;4929486;28;98405;-67
2023/07/06 08:36:33;;;;;;;;;;;;;;;40.73;30.20;100809.94;4921973;28;98185;-67
2023/07/06 08:39:05;;;;;;;;;;;;;;;42.65;28.69;100819.38;4925075;27;98029;-67
2023/07/06 08:41:34;;;;;;;;;;;;;;;42.31;28.93;100814.97;4931678;28;99918;-71
2023/07/06 08:44:02;;;;;;;;;;;;;;;43.05;28.87;100806.78;4930659;28;97934;-67
2023/07/06 08:46:34;;;;;;;;;;;;;;;43.85;28.17;100814.22;4927470;27;98036;-65
2023/07/06 08:49:00;;;;;;;;;;;;;;;44.85;27.67;100821.94;4936810;27;98047;-65
2023/07/06 08:51:34;;;;;;;;;;;;;;;45.76;27.08;100816.72;4927723;27;98444;-69
2023/07/06 08:54:17;;;;;;;;;;;;;;;42.58;29.81;100803.47;4947651;27;98104;-65
2023/07/06 08:56:43;;;;;;;;;;;;;;;42.12;30.24;100800.09;4927239;28;98285;-64
2023/07/06 08:59:33;;;;;;;;;;;;;;;39.64;31.92;100806.13;4921540;28;98194;-69
2023/07/06 09:02:16;;;;;;;;;;;;;;;40.88;30.36;100810.13;4931256;28;98392;-69
2023/07/06 09:04:46;;;;;;;;;;;;;;;42.65;29.04;100814.50;4962912;27;98485;-69
2023/07/06 09:07:14;;;;;;;;;;;;;;;44.24;27.94;100807.63;4946077;28;98603;-65
2023/07/06 09:09:45;;;;;;;;;;;;;;;45.13;27.34;100818.69;4937575;28;98885;-64
2023/07/06 09:12:25;;;;;;;;;;;;;;;41.52;30.49;100804.50;4920836;28;98218;-64
2023/07/06 09:14:58;;;;;;;;;;;;;;;41.01;30.53;100798.69;4920249;28;99644;-65
2023/07/06 09:17:24;;;;;;;;;;;;;;;39.78;31.37;100801.22;4924287;28;98840;-69
2023/07/06 09:19:54;;;;;;;;;;;;;;;40.13;30.75;100796.25;4920068;28;98110;-64
2023/07/06 09:22:23;;;;;;;;;;;;;;;38.63;32.09;100796.75;4942083;28;99126;-64
2023/07/06 09:24:50;;;;;;;;;;;;;;;40.26;30.16;100804.63;4925242;28;98110;-65
2023/07/06 09:27:26;;;;;;;;;;;;;;;37.67;32.29;100794.91;4925436;28;98044;-69
2023/07/06 09:30:00;;;;;;;;;;;;;;;36.05;33.03;100793.81;4955087;28;98351;-69
2023/07/06 09:32:27;;;;;;;;;;;;;;;34.73;34.17;100807.47;4927129;28;98138;-71
2023/07/06 09:34:55;;;;;;;;;;;;;;;36.55;31.89;100813.09;4924055;28;98110;-71
2023/07/06 09:37:22;;;;;;;;;;;;;;;38.30;31.09;100810.28;4940259;28;98552;-72
2023/07/06 09:40:03;;;;;;;;;;;;;;;39.97;29.38;100814.16;4924927;28;99617;-66
2023/07/06 09:42:30;;;;;;;;;;;;;;;41.74;28.21;100824.09;4940319;28;98452;-71
2023/07/06 09:44:56;;;;;;;;;;;;;;;42.92;27.70;100828.94;4921571;28;98150;-71
2023/07/06 09:47:22;;;;;;;;;;;;;;;44.17;27.31;100828.69;4923506;28;97933;-71
2023/07/06 09:50:00;;;;;;;;;;;;;;;42.88;28.17;100824.25;4940241;28;98936;-64
2023/07/06 09:52:27;;;;;;;;;;;;;;;43.19;28.36;100825.13;4924662;28;98318;-69
2023/07/06 09:54:59;;;;;;;;;;;;;;;40.21;30.76;100826.53;4942302;28;98915;-69
2023/07/06 09:57:27;;;;;;;;;;;;;;;38.17;32.38;100818.75;4918983;28;97963;-69
2023/07/06 09:59:54;;;;;;;;;;;;;;;37.82;31.66;100812.16;4924632;28;100699;-64
2023/07/06 10:02:26;;;;;;;;;;;;;;;37.15;32.29;100815.59;4916482;28;98267;-64
2023/07/06 10:05:28;;;;;;;;;;;;;;;40.37;29.23;100821.91;4928086;28;98999;-64
2023/07/06 10:08:13;;;;;;;;;;;;;;;40.49;29.70;100821.00;4930249;28;98832;-64
2023/07/06 10:10:58;;;;;;;;;;;;;;;40.49;29.33;100821.00;4935885;28;99331;-64
2023/07/06 10:13:47;;;;;;;;;;;;;;;42.38;28.22;100826.72;4951915;28;100119;-64
2023/07/06 10:16:32;;;;;;;;;;;;;;;39.55;30.74;100817.34;4924540;28;98432;-64
2023/07/06 10:19:12;;;;;;;;;;;;;;;42.62;28.06;100821.06;4951138;28;98301;-66
2023/07/06 10:22:14;;;;;;;;;;;;;;;41.61;29.23;100815.78;4925313;28;98097;-66
2023/07/06 10:24:53;;;;;;;;;;;;;;;40.07;30.16;100812.19;4933000;28;99491;-71
2023/07/06 10:27:25;;;;;;;;;;;;;;;41.31;28.84;100811.09;4940127;28;98274;-66
2023/07/06 10:29:54;;;;;;;;;;;;;;;42.45;28.54;100813.47;4917757;28;98232;-70
2023/07/06 10:32:42;;;;;;;;;;;;;;;43.14;28.05;100810.34;4923057;28;98237;-66
2023/07/06 10:35:19;;;;;;;;;;;;;;;39.20;30.98;100810.94;4935268;28;97958;-66
2023/07/06 10:37:46;;;;;;;;;;;;;;;40.78;29.50;100809.31;4943836;28;97989;-66
2023/07/06 10:40:23;;;;;;;;;;;;;;;42.38;28.64;100804.06;4923318;28;98075;-66
2023/07/06 10:43:07;;;;;;;;;;;;;;;43.49;27.63;100806.91;4960230;28;98400;-72
2023/07/06 10:45:33;;;;;;;;;;;;;;;44.30;27.34;100811.38;4932164;28;99517;-71
2023/07/06 10:48:17;;;;;;;;;;;;;;;45.01;27.17;100803.53;4949006;28;98234;-66
2023/07/06 10:50:45;;;;;;;;;;;;;;;45.49;27.17;100811.59;4940114;28;98542;-71
2023/07/06 10:53:36;;;;;;;;;;;;;;;45.97;26.81;100808.91;4918547;28;98189;-71
2023/07/06 10:56:02;;;;;;;;;;;;;;;46.55;26.85;100805.91;4927250;28;98017;-71
2023/07/06 10:58:30;;;;;;;;;;;;;;;46.75;26.82;100805.75;4955102;28;98046;-66
2023/07/06 11:00:57;;;;;;;;;;;;;;;45.68;27.67;100801.41;4925152;28;98307;-72
2023/07/06 11:03:29;;;;;;;;;;;;;;;42.62;30.01;100789.91;4926846;28;99091;-71
2023/07/06 11:06:08;;;;;;;;;;;;;;;44.29;28.60;100792.75;4945030;28;97919;-71
2023/07/06 11:09:07;;;;;;;;;;;;;;;43.32;28.92;100798.06;4924106;28;99732;-71
2023/07/06 11:11:35;;;;;;;;;;;;;;;44.92;27.85;100803.66;4943815;28;99227;-64
2023/07/06 11:14:41;;;;;;;;;;;;;;;45.15;27.71;100804.72;4925752;28;99941;-69
2023/07/06 11:17:33;;;;;;;;;;;;;;;45.30;27.68;100805.41;4918979;28;98359;-70
2023/07/06 11:20:08;;;;;;;;;;;;;;;45.61;27.84;100799.00;4873418;28;98405;-64
2023/07/06 11:22:34;;;;;;;;;;;;;;;45.56;27.72;100802.59;4914795;28;98431;-69
2023/07/06 11:25:03;;;;;;;;;;;;;;;44.65;28.23;100793.50;4912744;28;98168;-69
2023/07/06 11:27:37;;;;;;;;;;;;;;;45.08;27.91;100802.31;4915582;28;98186;-64
2023/07/06 11:30:28;;;;;;;;;;;;;;;44.67;28.25;100808.03;4908730;28;98152;-64
2023/07/06 11:33:06;;;;;;;;;;;;;;;44.75;28.31;100800.63;4910654;28;98251;-69
2023/07/06 11:35:41;;;;;;;;;;;;;;;44.61;28.29;100795.75;4922569;28;98164;-69
2023/07/06 11:38:46;;;;;;;;;;;;;;;43.93;28.89;100808.19;4929957;28;98331;-69
2023/07/06 11:41:40;;;;;;;;;;;;;;;40.33;31.37;100796.66;4937691;28;98126;-70
2023/07/06 11:44:11;;;;;;;;;;;;;;;38.78;32.20;100797.06;4923450;28;98358;-65
2023/07/06 11:46:47;;;;;;;;;;;;;;;38.26;31.92;100795.56;4926563;28;98242;-65
2023/07/06 11:49:42;;;;;;;;;;;;;;;37.03;32.98;100794.66;4928615;28;99532;-64
2023/07/06 11:52:13;;;;;;;;;;;;;;;35.98;33.31;100803.16;4925710;28;98006;-64
2023/07/06 11:54:49;;;;;;;;;;;;;;;35.26;33.33;100803.78;4923574;28;98142;-63
2023/07/06 11:57:28;;;;;;;;;;;;;;;35.92;32.71;100813.25;4906625;28;98413;-69
2023/07/06 12:02:52;;;;;;;;;;;;;;;36.97;31.24;100807.63;4924898;28;99718;-63
2023/07/06 12:05:39;;;;;;;;;;;;;;;35.65;32.46;100796.63;4921826;28;98395;-70
2023/07/06 12:08:20;;;;;;;;;;;;;;;34.85;33.07;100798.47;4941479;28;99833;-68
2023/07/06 12:10:48;;;;;;;;;;;;;;;34.16;33.67;100800.75;4922814;28;98152;-66
2023/07/06 12:13:28;;;;;;;;;;;;;;;33.70;33.70;100807.69;4929345;28;98120;-69
2023/07/06 12:16:08;;;;;;;;;;;;;;;33.44;33.28;100814.75;4942455;28;98086;-64
2023/07/06 12:18:34;;;;;;;;;;;;;;;35.11;31.63;100822.84;4954727;28;98388;-69
2023/07/06 12:21:00;;;;;;;;;;;;;;;34.49;32.40;100820.66;4939396;28;98416;-65
2023/07/06 12:23:26;;;;;;;;;;;;;;;35.53;31.79;100819.66;4942128;28;103293;-69
2023/07/06 12:25:56;;;;;;;;;;;;;;;36.34;31.24;100819.16;4945431;28;116031;-69
2023/07/06 12:28:26;;;;;;;;;;;;;;;35.81;31.42;100823.94;4943868;28;98746;-70
2023/07/06 12:30:53;;;;;;;;;;;;;;;35.92;31.50;100824.47;4926026;28;98029;-64
2023/07/06 12:33:19;;;;;;;;;;;;;;;36.10;31.10;100815.72;4926704;28;97850;-64
2023/07/06 12:35:46;;;;;;;;;;;;;;;36.19;31.54;100817.91;4928032;28;100893;-69
2023/07/06 12:38:14;;;;;;;;;;;;;;;36.92;30.89;100815.78;4940366;28;98421;-64
2023/07/06 12:40:40;;;;;;;;;;;;;;;37.34;30.78;100805.47;4925015;28;99041;-64
2023/07/06 12:43:12;;;;;;;;;;;;;;;37.35;30.68;100802.19;4918613;28;98212;-69
2023/07/06 12:45:39;;;;;;;;;;;;;;;37.15;30.77;100804.38;4939945;28;98114;-70
2023/07/06 12:48:05;;;;;;;;;;;;;;;37.39;30.26;100807.72;4938049;28;98442;-69
2023/07/06 12:50:35;;;;;;;;;;;;;;;36.74;30.97;100797.38;4925524;28;99681;-64
2023/07/06 12:53:20;;;;;;;;;;;;;;;37.30;30.45;100799.16;4923371;28;99332;-64
2023/07/06 12:55:46;;;;;;;;;;;;;;;37.47;30.90;100797.88;4942393;28;98157;-64
2023/07/06 12:58:37;;;;;;;;;;;;;;;37.50;30.63;100793.41;4939318;28;98402;-64